createdAt,value
2018-08-25T00:00:20.845Z,55.33
2018-08-25T00:02:50.228Z,56.55
2018-08-25T00:05:19.739Z,57.00
2018-08-25T00:07:49.028Z,55.88
2018-08-25T00:10:18.540Z,56.68
2018-08-25T00:12:47.808Z,57.54
2018-08-25T00:15:17.100Z,57.20
2018-08-25T00:17:46.446Z,58.32
2018-08-25T00:20:15.820Z,58.14
2018-08-25T00:22:45.348Z,57.68
2018-08-25T00:25:14.798Z,57.87
2018-08-25T00:27:44.056Z,57.57
2018-08-25T00:30:18.184Z,58.42
2018-08-25T00:32:47.560Z,58.05
2018-08-25T00:35:16.684Z,57.20
2018-08-25T00:37:45.949Z,58.76
2018-08-25T00:40:15.564Z,58.71
2018-08-25T00:42:44.919Z,58.90
2018-08-25T00:45:14.311Z,58.47
2018-08-25T00:47:43.761Z,58.94
2018-08-25T00:50:13.066Z,59.08
2018-08-25T00:52:42.028Z,58.92
2018-08-25T00:55:11.108Z,59.53
2018-08-25T00:57:40.203Z,59.29
2018-08-25T01:00:09.534Z,59.79
2018-08-25T01:02:38.644Z,59.46
2018-08-25T01:05:07.786Z,59.50
2018-08-25T01:07:37.183Z,59.34
2018-08-25T01:10:06.265Z,59.20
2018-08-25T01:12:35.563Z,60.28
2018-08-25T01:15:04.905Z,59.86
2018-08-25T01:17:34.187Z,61.39
2018-08-25T01:20:03.475Z,61.12
2018-08-25T01:22:32.780Z,59.85
2018-08-25T01:25:02.077Z,60.08
2018-08-25T01:27:31.422Z,60.07
2018-08-25T01:30:00.719Z,61.18
2018-08-25T01:32:30.212Z,60.31
2018-08-25T01:34:59.203Z,61.18
2018-08-25T01:37:28.720Z,60.13
2018-08-25T01:39:58.108Z,61.74
2018-08-25T01:42:27.323Z,61.53
2018-08-25T01:44:56.584Z,61.95
2018-08-25T01:47:25.802Z,61.75
2018-08-25T01:49:55.168Z,61.28
2018-08-25T01:52:24.574Z,61.54
2018-08-25T01:54:53.639Z,62.75
2018-08-25T01:57:22.711Z,62.31
2018-08-25T01:59:52.013Z,62.48
2018-08-25T02:02:21.363Z,62.83
2018-08-25T02:04:50.779Z,63.67
2018-08-25T02:07:20.202Z,62.56
2018-08-25T02:09:49.247Z,62.62
2018-08-25T02:12:18.312Z,62.25
2018-08-25T02:14:47.478Z,63.04
2018-08-25T02:17:16.720Z,62.43
2018-08-25T02:19:45.879Z,62.76
2018-08-25T02:22:15.059Z,63.44
2018-08-25T02:24:44.154Z,64.19
2018-08-25T02:27:13.459Z,64.51
2018-08-25T02:29:42.800Z,64.07
2018-08-25T02:32:11.925Z,64.15
2018-08-25T02:34:41.097Z,63.93
2018-08-25T02:37:10.611Z,64.74
2018-08-25T02:39:39.963Z,64.78
2018-08-25T02:42:09.462Z,64.70
2018-08-25T02:44:38.599Z,64.64
2018-08-25T02:47:08.023Z,65.64
2018-08-25T02:49:36.932Z,65.31
2018-08-25T02:52:06.159Z,66.13
2018-08-25T02:54:35.103Z,66.19
2018-08-25T02:57:04.159Z,65.89
2018-08-25T02:59:33.311Z,66.75
2018-08-25T03:02:03.040Z,67.86
2018-08-25T03:04:32.494Z,68.04
2018-08-25T03:07:01.618Z,69.26
2018-08-25T03:09:30.989Z,68.47
2018-08-25T03:12:00.009Z,69.13
2018-08-25T03:14:29.296Z,70.35
2018-08-25T03:16:58.720Z,70.23
2018-08-25T03:19:28.098Z,70.76
2018-08-25T03:21:57.549Z,71.08
2018-08-25T03:24:27.018Z,70.97
2018-08-25T03:26:56.233Z,70.93
2018-08-25T03:29:25.222Z,71.82
2018-08-25T03:31:54.145Z,70.97
2018-08-25T03:34:23.532Z,70.93
2018-08-25T03:36:52.659Z,71.50
2018-08-25T03:39:22.021Z,71.18
2018-08-25T03:41:51.391Z,71.85
2018-08-25T03:44:20.912Z,72.31
2018-08-25T03:46:50.263Z,72.77
2018-08-25T03:49:19.362Z,71.61
2018-08-25T03:51:48.409Z,71.59
2018-08-25T03:54:17.918Z,72.25
2018-08-25T03:56:47.219Z,71.37
2018-08-25T03:59:16.604Z,71.34
2018-08-25T04:01:45.881Z,71.97
2018-08-25T04:04:15.045Z,71.72
2018-08-25T04:06:44.347Z,71.49
2018-08-25T04:09:14.746Z,71.14
2018-08-25T04:11:43.655Z,71.77
2018-08-25T04:14:13.415Z,71.14
2018-08-25T04:16:42.511Z,71.17
2018-08-25T04:19:21.024Z,71.78
2018-08-25T04:21:50.764Z,70.73
2018-08-25T04:24:20.000Z,71.19
2018-08-25T04:26:49.259Z,71.12
2018-08-25T04:29:18.747Z,70.92
2018-08-25T04:31:48.148Z,71.30
2018-08-25T04:34:17.511Z,71.02
2018-08-25T04:36:46.792Z,70.76
2018-08-25T04:39:16.192Z,70.65
2018-08-25T04:41:45.552Z,70.99
2018-08-25T04:44:14.532Z,70.63
2018-08-25T04:46:43.794Z,69.79
2018-08-25T04:49:12.918Z,70.83
2018-08-25T04:51:42.000Z,70.44
2018-08-25T04:54:11.284Z,69.30
2018-08-25T04:56:40.979Z,69.46
2018-08-25T04:59:10.231Z,68.17
2018-08-25T05:01:39.733Z,69.01
2018-08-25T05:04:09.236Z,68.48
2018-08-25T05:06:38.645Z,69.13
2018-08-25T05:09:09.401Z,68.41
2018-08-25T05:11:38.739Z,67.84
2018-08-25T05:14:08.097Z,67.04
2018-08-25T05:16:37.151Z,65.73
2018-08-25T05:19:06.424Z,65.31
2018-08-25T05:21:35.621Z,64.45
2018-08-25T05:24:04.732Z,64.88
2018-08-25T05:26:33.734Z,64.77
2018-08-25T05:29:03.149Z,66.20
2018-08-25T05:31:32.153Z,65.88
2018-08-25T05:34:01.363Z,65.03
2018-08-25T05:36:30.856Z,65.15
2018-08-25T05:38:59.925Z,64.59
2018-08-25T05:41:29.333Z,63.16
2018-08-25T05:43:58.691Z,62.66
2018-08-25T05:46:28.048Z,63.54
2018-08-25T05:48:57.309Z,62.15
2018-08-25T05:51:26.914Z,62.25
2018-08-25T05:53:55.936Z,61.75
2018-08-25T05:56:25.335Z,60.11
2018-08-25T05:58:54.557Z,57.92
2018-08-25T06:01:24.030Z,56.20
2018-08-25T06:03:53.603Z,56.40
2018-08-25T06:06:22.828Z,55.20
2018-08-25T06:08:52.058Z,56.40
2018-08-25T06:11:21.195Z,56.90
2018-08-25T06:13:50.118Z,56.81
2018-08-25T06:16:19.471Z,57.89
2018-08-25T06:18:48.559Z,58.46
2018-08-25T06:21:17.785Z,57.76
2018-08-25T06:23:47.042Z,57.82
2018-08-25T06:26:16.418Z,56.44
2018-08-25T06:28:45.629Z,56.31
2018-08-25T06:31:14.619Z,56.69
2018-08-25T06:33:43.679Z,56.76
2018-08-25T06:36:12.938Z,57.42
2018-08-25T06:38:42.031Z,56.97
2018-08-25T06:41:11.300Z,56.02
2018-08-25T06:43:40.671Z,56.08
2018-08-25T06:46:10.608Z,55.41
2018-08-25T06:48:41.014Z,54.44
2018-08-25T06:51:10.522Z,54.36
2018-08-25T06:53:39.907Z,53.57
2018-08-25T06:56:08.936Z,53.46
2018-08-25T06:58:38.324Z,53.28
2018-08-25T07:01:07.806Z,54.17
2018-08-25T07:03:37.345Z,53.59
2018-08-25T07:06:06.671Z,51.86
2018-08-25T07:08:35.812Z,52.81
2018-08-25T07:11:05.021Z,52.24
2018-08-25T07:13:34.303Z,51.12
2018-08-25T07:16:03.423Z,51.07
2018-08-25T07:18:32.808Z,51.71
2018-08-25T07:21:02.248Z,51.93
2018-08-25T07:23:31.753Z,51.88
2018-08-25T07:26:01.110Z,51.79
2018-08-25T07:28:30.418Z,50.96
2018-08-25T07:30:59.609Z,51.21
2018-08-25T07:33:28.644Z,51.93
2018-08-25T07:35:58.007Z,52.73
2018-08-25T07:38:27.677Z,52.58
2018-08-25T07:40:57.126Z,52.15
2018-08-25T07:43:26.667Z,50.65
2018-08-25T07:45:55.808Z,51.80
2018-08-25T07:48:25.325Z,52.00
2018-08-25T07:50:54.644Z,51.17
2018-08-25T07:53:24.269Z,52.37
2018-08-25T07:55:54.333Z,52.12
2018-08-25T07:58:23.858Z,51.61
2018-08-25T08:00:53.000Z,51.40
2018-08-25T08:03:22.346Z,51.76
2018-08-25T08:05:51.919Z,50.94
2018-08-25T08:08:21.171Z,51.13
2018-08-25T08:10:50.699Z,51.38
2018-08-25T08:13:20.256Z,50.19
2018-08-25T08:15:49.432Z,48.42
2018-08-25T08:18:18.355Z,46.74
2018-08-25T08:20:47.610Z,46.95
2018-08-25T08:23:16.892Z,45.24
2018-08-25T08:25:46.108Z,41.65
2018-08-25T08:28:15.330Z,40.10
2018-08-25T08:30:44.673Z,38.01
2018-08-25T08:33:13.837Z,36.07
2018-08-25T08:35:42.917Z,33.46
2018-08-25T08:38:12.185Z,31.98
2018-08-25T08:40:41.094Z,30.43
2018-08-25T08:43:10.395Z,30.21
2018-08-25T08:45:39.611Z,31.93
2018-08-25T08:48:08.997Z,32.14
2018-08-25T08:50:38.251Z,31.20
2018-08-25T08:53:07.422Z,29.42
2018-08-25T08:55:36.456Z,28.93
2018-08-25T08:58:05.793Z,28.47
2018-08-25T09:00:35.155Z,27.42
2018-08-25T09:03:04.579Z,27.41
2018-08-25T09:05:33.899Z,27.10
2018-08-25T09:08:04.305Z,27.01
2018-08-25T09:10:34.408Z,27.10
2018-08-25T09:13:03.946Z,26.74
2018-08-25T09:15:33.351Z,26.61
2018-08-25T09:18:02.891Z,26.62
2018-08-25T09:20:32.073Z,26.88
2018-08-25T09:23:01.383Z,26.17
2018-08-25T09:25:31.495Z,26.69
2018-08-25T09:28:00.958Z,27.21
2018-08-25T09:30:30.368Z,26.53
2018-08-25T09:32:59.650Z,25.12
2018-08-25T09:35:28.814Z,24.25
2018-08-25T09:37:58.039Z,24.31
2018-08-25T09:40:27.306Z,23.25
2018-08-25T09:42:56.903Z,22.32
2018-08-25T09:45:26.108Z,22.35
2018-08-25T09:47:54.958Z,23.06
2018-08-25T09:50:24.341Z,23.23
2018-08-25T09:52:53.608Z,24.11
2018-08-25T09:55:23.042Z,23.96
2018-08-25T09:57:52.107Z,24.66
2018-08-25T10:00:21.449Z,26.85
2018-08-25T10:02:50.496Z,27.28
2018-08-25T10:05:19.918Z,27.93
2018-08-25T10:07:48.927Z,28.17
2018-08-25T10:10:18.282Z,28.51
2018-08-25T10:12:47.486Z,27.40
2018-08-25T10:15:16.933Z,25.93
2018-08-25T10:17:45.948Z,25.12
2018-08-25T10:20:15.266Z,22.20
2018-08-25T10:22:44.612Z,21.73
2018-08-25T10:25:13.799Z,20.16
2018-08-25T10:27:43.305Z,18.47
2018-08-25T10:30:12.672Z,16.92
2018-08-25T10:32:41.932Z,16.49
2018-08-25T10:35:11.150Z,16.85
2018-08-25T10:37:40.419Z,16.79
2018-08-25T10:40:09.761Z,17.02
2018-08-25T10:42:39.009Z,16.32
2018-08-25T10:45:08.259Z,15.96
2018-08-25T10:47:37.435Z,14.25
2018-08-25T10:50:06.913Z,14.67
2018-08-25T10:52:36.119Z,14.79
2018-08-25T10:55:05.495Z,15.31
2018-08-25T10:57:34.735Z,14.84
2018-08-25T11:00:04.002Z,14.96
2018-08-25T11:02:33.363Z,16.50
2018-08-25T11:05:02.225Z,15.02
2018-08-25T11:07:31.596Z,14.25
2018-08-25T11:10:00.892Z,13.63
2018-08-25T11:12:30.149Z,12.61
2018-08-25T11:14:59.843Z,13.05
2018-08-25T11:17:28.844Z,13.95
2018-08-25T11:19:58.180Z,14.82
2018-08-25T11:22:27.367Z,15.54
2018-08-25T11:24:56.777Z,14.32
2018-08-25T11:27:26.035Z,14.31
2018-08-25T11:29:55.320Z,14.89
2018-08-25T11:32:24.646Z,14.57
2018-08-25T11:34:53.781Z,14.25
2018-08-25T11:37:23.093Z,13.67
2018-08-25T11:39:52.519Z,13.96
2018-08-25T11:42:21.880Z,13.98
2018-08-25T11:44:51.233Z,13.94
2018-08-25T11:47:20.272Z,14.16
2018-08-25T11:49:49.539Z,14.56
2018-08-25T11:52:18.764Z,13.62
2018-08-25T11:54:47.721Z,12.58
2018-08-25T11:57:16.916Z,13.61
2018-08-25T11:59:46.329Z,16.44
2018-08-25T12:02:16.035Z,18.44
2018-08-25T12:04:46.199Z,20.78
2018-08-25T12:07:15.660Z,21.98
2018-08-25T12:09:44.929Z,22.58
2018-08-25T12:12:14.274Z,23.96
2018-08-25T12:14:43.406Z,24.97
2018-08-25T12:17:12.701Z,24.70
2018-08-25T12:19:41.737Z,26.26
2018-08-25T12:22:10.988Z,25.07
2018-08-25T12:24:40.245Z,25.87
2018-08-25T12:27:09.171Z,26.21
2018-08-25T12:29:38.545Z,26.40
2018-08-25T12:32:07.817Z,26.28
2018-08-25T12:34:37.204Z,26.29
2018-08-25T12:37:06.456Z,25.62
2018-08-25T12:39:35.576Z,23.60
2018-08-25T12:42:04.633Z,23.24
2018-08-25T12:44:33.874Z,23.33
2018-08-25T12:47:03.203Z,22.24
2018-08-25T12:49:32.367Z,22.75
2018-08-25T12:52:01.615Z,23.00
2018-08-25T12:54:30.912Z,20.63
2018-08-25T12:57:00.064Z,19.04
2018-08-25T12:59:29.497Z,20.01
2018-08-25T13:01:58.832Z,18.89
2018-08-25T13:04:28.171Z,17.14
2018-08-25T13:06:57.195Z,17.12
2018-08-25T13:09:26.112Z,16.93
2018-08-25T13:11:55.454Z,16.55
2018-08-25T13:14:24.441Z,16.66
2018-08-25T13:16:53.793Z,16.03
2018-08-25T13:19:23.046Z,17.40
2018-08-25T13:21:52.332Z,17.45
2018-08-25T13:24:21.511Z,17.15
2018-08-25T13:26:50.817Z,18.27
2018-08-25T13:29:20.108Z,18.75
2018-08-25T13:31:49.543Z,19.71
2018-08-25T13:34:18.961Z,20.36
2018-08-25T13:36:48.260Z,19.42
2018-08-25T13:39:17.616Z,20.74
2018-08-25T13:41:47.148Z,23.83
2018-08-25T13:44:16.650Z,24.40
2018-08-25T13:46:46.000Z,24.52
2018-08-25T13:49:15.332Z,26.55
2018-08-25T13:51:44.574Z,29.47
2018-08-25T13:54:13.518Z,31.08
2018-08-25T13:56:42.713Z,33.33
2018-08-25T13:59:11.868Z,33.26
2018-08-25T14:01:41.123Z,34.21
2018-08-25T14:04:10.379Z,33.57
2018-08-25T14:06:39.872Z,32.96
2018-08-25T14:09:09.425Z,32.18
2018-08-25T14:11:38.701Z,32.25
2018-08-25T14:14:07.853Z,32.29
2018-08-25T14:16:37.159Z,33.23
2018-08-25T14:19:06.252Z,31.86
2018-08-25T14:21:35.645Z,31.76
2018-08-25T14:24:05.120Z,33.29
2018-08-25T14:26:34.423Z,32.17
2018-08-25T14:29:03.529Z,32.16
2018-08-25T14:31:32.773Z,32.36
2018-08-25T14:34:01.975Z,32.80
2018-08-25T14:36:31.416Z,32.33
2018-08-25T14:39:00.605Z,33.17
2018-08-25T14:41:29.739Z,32.09
2018-08-25T14:43:58.980Z,33.73
2018-08-25T14:46:28.163Z,34.47
2018-08-25T14:48:57.412Z,33.49
2018-08-25T14:51:26.532Z,32.82
2018-08-25T14:53:55.816Z,33.75
2018-08-25T14:56:25.108Z,33.74
2018-08-25T14:58:54.415Z,34.37
2018-08-25T15:01:23.937Z,34.01
2018-08-25T15:03:53.180Z,34.28
2018-08-25T15:06:22.134Z,35.00
2018-08-25T15:08:51.101Z,34.26
2018-08-25T15:11:20.212Z,34.28
2018-08-25T15:13:49.765Z,34.95
2018-08-25T15:16:18.919Z,35.29
2018-08-25T15:18:48.332Z,35.37
2018-08-25T15:21:17.676Z,36.67
2018-08-25T15:23:46.854Z,35.44
2018-08-25T15:26:15.881Z,36.50
2018-08-25T15:28:45.164Z,37.33
2018-08-25T15:31:14.139Z,36.71
2018-08-25T15:33:43.275Z,37.46
2018-08-25T15:36:12.520Z,37.37
2018-08-25T15:38:41.847Z,38.27
2018-08-25T15:41:10.825Z,37.98
2018-08-25T15:43:39.862Z,38.47
2018-08-25T15:46:09.258Z,38.95
2018-08-25T15:48:38.364Z,39.56
2018-08-25T15:51:07.753Z,40.37
2018-08-25T15:53:36.842Z,41.78
2018-08-25T15:56:06.059Z,41.88
2018-08-25T15:58:35.466Z,42.28
2018-08-25T16:01:04.640Z,41.67
2018-08-25T16:03:34.124Z,42.78
2018-08-25T16:06:03.147Z,41.89
2018-08-25T16:08:32.467Z,43.35
2018-08-25T16:11:01.337Z,43.72
2018-08-25T16:13:30.532Z,43.41
2018-08-25T16:16:00.069Z,42.96
2018-08-25T16:18:29.599Z,42.91
2018-08-25T16:20:58.956Z,44.04
2018-08-25T16:23:28.243Z,45.15
2018-08-25T16:25:57.746Z,44.01
2018-08-25T16:28:26.784Z,43.19
2018-08-25T16:30:56.185Z,43.91
2018-08-25T16:33:25.592Z,43.86
2018-08-25T16:35:54.897Z,44.23
2018-08-25T16:38:24.233Z,44.82
2018-08-25T16:40:53.737Z,45.23
2018-08-25T16:43:23.121Z,44.95
2018-08-25T16:45:52.707Z,45.80
2018-08-25T16:48:21.843Z,47.07
2018-08-25T16:50:51.348Z,46.27
2018-08-25T16:53:20.551Z,46.65
2018-08-25T16:55:49.967Z,46.38
2018-08-25T16:58:18.939Z,46.06
2018-08-25T17:00:48.179Z,46.85
2018-08-25T17:03:17.408Z,46.86
2018-08-25T17:05:46.334Z,46.08
2018-08-25T17:08:15.698Z,46.69
2018-08-25T17:10:45.028Z,47.52
2018-08-25T17:13:14.162Z,47.94
2018-08-25T17:15:43.510Z,47.66
2018-08-25T17:18:12.816Z,48.53
2018-08-25T17:20:42.179Z,48.14
2018-08-25T17:23:11.777Z,48.11
2018-08-25T17:25:41.071Z,46.26
2018-08-25T17:28:10.204Z,45.96
2018-08-25T17:30:39.257Z,44.76
2018-08-25T17:33:08.675Z,44.73
2018-08-25T17:35:37.876Z,45.41
2018-08-25T17:38:07.421Z,46.59
2018-08-25T17:40:36.677Z,47.06
2018-08-25T17:43:05.975Z,46.85
2018-08-25T17:45:35.463Z,46.55
2018-08-25T17:48:05.183Z,45.12
2018-08-25T17:50:34.510Z,45.22
2018-08-25T17:53:03.724Z,45.05
2018-08-25T17:55:33.080Z,44.61
2018-08-25T17:58:02.079Z,44.38
2018-08-25T18:00:31.438Z,43.97
2018-08-25T18:03:00.721Z,44.48
2018-08-25T18:05:29.757Z,44.52
2018-08-25T18:07:58.826Z,45.21
2018-08-25T18:10:28.136Z,45.26
2018-08-25T18:12:57.496Z,45.00
2018-08-25T18:15:26.760Z,44.79
2018-08-25T18:17:56.187Z,45.08
2018-08-25T18:20:25.283Z,45.46
2018-08-25T18:22:54.282Z,44.99
2018-08-25T18:25:23.271Z,44.57
2018-08-25T18:27:52.466Z,45.85
2018-08-25T18:30:21.994Z,45.94
2018-08-25T18:32:51.130Z,45.71
2018-08-25T18:35:20.555Z,46.62
2018-08-25T18:37:49.835Z,45.85
2018-08-25T18:40:18.853Z,45.40
2018-08-25T18:42:47.697Z,45.38
2018-08-25T18:45:17.021Z,45.92
2018-08-25T18:47:46.397Z,45.72
2018-08-25T18:50:15.746Z,44.58
2018-08-25T18:52:44.790Z,45.09
2018-08-25T18:55:14.290Z,46.33
2018-08-25T18:57:43.802Z,46.55
2018-08-25T19:00:13.088Z,46.93
2018-08-25T19:02:42.155Z,46.54
2018-08-25T19:05:11.595Z,47.01
2018-08-25T19:07:41.073Z,48.31
2018-08-25T19:10:10.367Z,47.80
2018-08-25T19:12:39.768Z,48.53
2018-08-25T19:15:09.051Z,47.95
2018-08-25T19:17:38.458Z,49.14
2018-08-25T19:20:07.796Z,49.78
2018-08-25T19:22:36.971Z,47.63
2018-08-25T19:25:06.287Z,48.67
2018-08-25T19:27:35.528Z,49.58
2018-08-25T19:30:05.039Z,48.99
2018-08-25T19:32:34.184Z,50.56
2018-08-25T19:35:03.471Z,50.28
2018-08-25T19:37:32.889Z,49.41
2018-08-25T19:40:02.133Z,48.21
2018-08-25T19:42:31.132Z,47.90
2018-08-25T19:45:00.151Z,48.38
2018-08-25T19:47:29.473Z,47.95
2018-08-25T19:49:58.729Z,47.15
2018-08-25T19:52:27.791Z,46.56
2018-08-25T19:54:56.942Z,47.22
2018-08-25T19:57:26.210Z,45.97
2018-08-25T19:59:55.398Z,46.94
2018-08-25T20:02:24.571Z,48.27
2018-08-25T20:04:53.496Z,48.46
2018-08-25T20:07:22.872Z,48.66
2018-08-25T20:09:52.060Z,48.07
2018-08-25T20:12:21.487Z,49.03
2018-08-25T20:14:50.691Z,48.36
2018-08-25T20:17:19.935Z,48.74
2018-08-25T20:19:49.477Z,48.51
2018-08-25T20:22:18.553Z,49.88
2018-08-25T20:24:47.984Z,49.50
2018-08-25T20:27:17.244Z,49.89
2018-08-25T20:29:46.251Z,50.37
2018-08-25T20:32:15.532Z,51.05
2018-08-25T20:34:44.507Z,50.43
2018-08-25T20:37:13.773Z,52.12
2018-08-25T20:39:43.318Z,52.51
2018-08-25T20:42:12.772Z,52.02
2018-08-25T20:44:42.126Z,53.15
2018-08-25T20:47:11.466Z,53.83
2018-08-25T20:49:40.959Z,53.50
2018-08-25T20:52:10.824Z,53.95
2018-08-25T20:54:40.250Z,54.11
2018-08-25T20:57:09.665Z,52.84
2018-08-25T20:59:38.786Z,52.24
2018-08-25T21:02:07.784Z,52.91
2018-08-25T21:04:37.119Z,51.47
2018-08-25T21:07:06.465Z,51.75
2018-08-25T21:09:35.795Z,52.55
2018-08-25T21:12:05.268Z,51.75
2018-08-25T21:14:34.823Z,51.89
2018-08-25T21:17:04.231Z,52.30
2018-08-25T21:19:33.169Z,53.26
2018-08-25T21:22:02.566Z,52.96
2018-08-25T21:24:31.712Z,53.47
2018-08-25T21:27:00.937Z,53.10
2018-08-25T21:29:30.276Z,54.30
2018-08-25T21:31:59.493Z,53.35
2018-08-25T21:34:28.594Z,54.21
2018-08-25T21:36:57.920Z,54.85
2018-08-25T21:39:27.315Z,55.24
2018-08-25T21:41:56.372Z,54.57
2018-08-25T21:44:25.758Z,55.31
2018-08-25T21:46:54.995Z,56.14
2018-08-25T21:49:24.044Z,55.96
2018-08-25T21:51:53.244Z,56.75
2018-08-25T21:54:22.431Z,55.03
2018-08-25T21:56:51.748Z,55.41
2018-08-25T21:59:21.277Z,55.42
2018-08-25T22:01:55.511Z,54.78
2018-08-25T22:04:24.895Z,54.88
2018-08-25T22:06:54.099Z,54.32
2018-08-25T22:09:23.381Z,55.13
2018-08-25T22:11:52.540Z,55.57
2018-08-25T22:14:21.859Z,55.52
2018-08-25T22:16:51.404Z,55.48
2018-08-25T22:19:20.720Z,55.77
2018-08-25T22:21:50.195Z,56.51
2018-08-25T22:24:19.216Z,57.18
2018-08-25T22:26:48.209Z,57.25
2018-08-25T22:29:17.541Z,57.84
2018-08-25T22:31:46.877Z,57.78
2018-08-25T22:34:16.081Z,58.20
2018-08-25T22:36:45.471Z,58.18
2018-08-25T22:39:14.828Z,59.13
2018-08-25T22:41:44.123Z,59.74
2018-08-25T22:44:13.757Z,59.03
2018-08-25T22:46:43.181Z,59.83
2018-08-25T22:49:12.218Z,59.24
2018-08-25T22:51:41.355Z,59.73
2018-08-25T22:54:10.671Z,59.90
2018-08-25T22:56:39.968Z,60.02
2018-08-25T22:59:09.326Z,60.14
2018-08-25T23:01:38.638Z,58.90
2018-08-25T23:04:08.003Z,58.83
2018-08-25T23:06:37.271Z,59.28
2018-08-25T23:09:08.194Z,59.58
2018-08-25T23:11:37.568Z,58.48
2018-08-25T23:14:06.602Z,58.81
2018-08-25T23:16:36.052Z,59.68
2018-08-25T23:19:05.576Z,59.12
2018-08-25T23:21:34.951Z,59.29
2018-08-25T23:24:04.001Z,58.93
2018-08-25T23:26:33.444Z,58.80
2018-08-25T23:29:02.659Z,58.72
2018-08-25T23:31:31.844Z,58.69
2018-08-25T23:34:01.058Z,58.79
2018-08-25T23:36:30.396Z,57.72
2018-08-25T23:38:59.459Z,57.39
2018-08-25T23:41:28.543Z,58.20
2018-08-25T23:43:57.736Z,57.71
2018-08-25T23:46:27.099Z,57.53
2018-08-25T23:48:56.413Z,58.55
2018-08-25T23:51:25.631Z,57.72
2018-08-25T23:53:55.076Z,58.01
2018-08-25T23:56:24.139Z,57.89
2018-08-25T23:58:53.328Z,58.42
